Zollikon, Switzerland
Current Conditions -  °F | °C
As of 2:50 PM on Tuesday 21 Oct 2014 (Local Time) from LSMD Reporting Station
Broken Clouds Broken Clouds  
Wind Chill: 63°   Ceiling: 5500
Heat Index: 63°   Visibility: 6mi
Dew Point: 55°   Wind: 10mph
Humidity: 77%   Direction: 330°NNW
Pressure: 29.88"   Gusts: NA
Location:  47.34°N, 8.58°E
Report Text: LSMD 211250Z 33009KT 300V010 9999 FEW030 SCT040 BKN055 17/13 Q1012 RMK WHT
Loading
Personal Weather Stations






























Interactive Weather Map
Tropical Storm Tracking
New forecast layout! Learn more

10-Day Weather Forecast

Advertisements
Track Severe Weather on mobile